Time;durP1;ratioP1;P1;durP2;ratioP2;P2;SDS_P1;SDS_P2;PMS_P1;PMS_P2;Temp;Humidity;BMP_temperature;BMP_pressure;BME280_temperature;BME280_humidity;BME280_pressure;Samples;Min_cycle;Max_cycle;Signal;HPM_P1;HPM_P2
2023/08/30 00:00:42;;;;;;;;;8.67;6.00;;;;;19.26;55.53;100632.19;5073948;27;45327;-63
2023/08/30 00:03:08;;;;;;;;;6.00;5.00;;;;;19.20;55.95;100634.22;5075149;27;46235;-61
2023/08/30 00:05:34;;;;;;;;;5.00;5.00;;;;;19.18;55.63;100625.44;5077348;27;45283;-63
2023/08/30 00:07:59;;;;;;;;;7.33;6.00;;;;;19.15;56.08;100620.22;5077587;27;45451;-63
2023/08/30 00:10:25;;;;;;;;;7.33;6.00;;;;;19.17;56.05;100621.03;5079232;27;45473;-63
2023/08/30 00:12:51;;;;;;;;;7.33;6.33;;;;;19.19;55.96;100628.03;5078613;27;45408;-64
2023/08/30 00:15:16;;;;;;;;;11.67;6.67;;;;;19.00;56.55;100606.56;5070142;27;45434;-63
2023/08/30 00:17:42;;;;;;;;;6.67;5.67;;;;;18.89;56.21;100587.53;5069607;27;45449;-63
2023/08/30 00:20:11;;;;;;;;;7.00;7.00;;;;;19.08;56.34;100611.63;5072129;28;45466;-63
2023/08/30 00:22:37;;;;;;;;;8.67;5.67;;;;;19.09;56.62;100615.16;5077185;27;46273;-65
2023/08/30 00:25:03;;;;;;;;;8.33;8.00;;;;;19.00;56.67;100601.25;5078022;27;45409;-64
2023/08/30 00:27:28;;;;;;;;;10.00;6.33;;;;;19.00;56.84;100605.72;5078087;28;45275;-64
2023/08/30 00:29:54;;;;;;;;;7.00;6.00;;;;;19.01;56.54;100607.47;5077237;27;45577;-64
2023/08/30 00:32:21;;;;;;;;;7.67;7.00;;;;;19.02;56.49;100607.38;5077530;27;46440;-70
2023/08/30 00:34:50;;;;;;;;;11.33;9.00;;;;;19.01;56.51;100604.81;5110163;27;45458;-68
2023/08/30 00:37:15;;;;;;;;;8.00;7.67;;;;;19.01;56.32;100602.16;5078338;27;45435;-63
2023/08/30 00:39:41;;;;;;;;;5.67;5.67;;;;;18.89;56.54;100591.94;5077373;27;45291;-62
2023/08/30 00:42:09;;;;;;;;;6.00;6.00;;;;;18.92;56.96;100600.69;5076653;27;45435;-62
2023/08/30 00:44:40;;;;;;;;;8.00;7.33;;;;;18.83;56.77;100595.69;5077258;27;45747;-66
2023/08/30 00:47:06;;;;;;;;;7.00;7.00;;;;;18.77;56.71;100586.16;5077223;27;45275;-63
2023/08/30 00:49:32;;;;;;;;;7.00;6.00;;;;;18.80;56.85;100582.53;5078692;27;45468;-63
2023/08/30 00:52:03;;;;;;;;;6.00;6.00;;;;;18.79;56.96;100586.09;5077211;27;45331;-62
2023/08/30 00:54:29;;;;;;;;;7.33;6.00;;;;;18.76;56.77;100592.38;5076744;27;45878;-64
2023/08/30 00:56:55;;;;;;;;;6.33;6.00;;;;;18.78;57.10;100585.22;5058084;28;45501;-63
2023/08/30 00:59:22;;;;;;;;;7.67;6.33;;;;;18.75;57.09;100576.50;5076785;27;45486;-63
2023/08/30 01:01:48;;;;;;;;;6.33;5.67;;;;;18.65;57.05;100558.22;5076684;27;45508;-63
2023/08/30 01:04:14;;;;;;;;;2.00;2.00;;;;;18.81;56.79;100573.63;5076399;27;45327;-63
2023/08/30 01:06:39;;;;;;;;;8.67;5.00;;;;;18.82;56.67;100564.78;5076993;27;45529;-62
2023/08/30 01:09:06;;;;;;;;;7.33;6.33;;;;;18.89;56.39;100565.41;5077149;27;45772;-64
2023/08/30 01:12:11;;;;;;;;;8.67;6.67;;;;;18.95;56.40;100566.06;5076617;27;45474;-62
2023/08/30 01:14:52;;;;;;;;;7.00;7.00;;;;;18.99;56.17;100557.06;5061827;28;45429;-66
2023/08/30 01:17:19;;;;;;;;;6.00;5.33;;;;;19.01;56.24;100552.59;5076909;27;45346;-64
2023/08/30 01:20:16;;;;;;;;;6.33;4.33;;;;;18.94;56.21;100537.81;5076514;27;45374;-65
2023/08/30 01:23:11;;;;;;;;;7.67;7.33;;;;;19.10;55.73;100553.16;5075512;27;45700;-63
2023/08/30 01:26:32;;;;;;;;;8.00;5.00;;;;;19.14;55.94;100553.00;5076658;27;45390;-63
2023/08/30 01:29:01;;;;;;;;;6.67;6.67;;;;;19.14;55.79;100545.03;5034700;28;45880;-65
2023/08/30 01:31:29;;;;;;;;;6.67;4.67;;;;;19.06;55.91;100544.47;5017442;28;45581;-64
2023/08/30 01:33:56;;;;;;;;;9.33;6.33;;;;;19.10;55.97;100551.41;5044319;28;45741;-64
2023/08/30 01:36:22;;;;;;;;;6.00;4.33;;;;;18.99;56.08;100529.69;5072782;28;45372;-64
2023/08/30 01:38:49;;;;;;;;;5.67;5.67;;;;;19.01;55.60;100530.50;5076476;27;45583;-63
2023/08/30 01:41:23;;;;;;;;;5.00;5.00;;;;;18.99;55.74;100538.50;5077622;27;45611;-64
2023/08/30 01:43:55;;;;;;;;;6.00;5.00;;;;;18.97;55.82;100532.38;5075631;27;45650;-63
2023/08/30 01:46:22;;;;;;;;;5.67;5.00;;;;;19.07;55.71;100541.72;5109943;27;45494;-65
2023/08/30 01:48:53;;;;;;;;;4.33;4.33;;;;;19.06;55.63;100533.84;5078301;27;45343;-64
2023/08/30 01:51:30;;;;;;;;;4.00;4.00;;;;;18.91;55.48;100500.78;5076290;27;45669;-64
2023/08/30 01:54:02;;;;;;;;;4.67;4.67;;;;;19.00;55.45;100508.38;5070288;27;45311;-65
2023/08/30 01:56:35;;;;;;;;;6.00;3.33;;;;;19.04;55.61;100523.28;5073949;27;45530;-66
2023/08/30 01:59:04;;;;;;;;;5.00;5.00;;;;;19.04;55.44;100515.31;5069901;27;45443;-64
2023/08/30 02:01:30;;;;;;;;;5.33;4.00;;;;;19.16;55.47;100537.88;5074628;27;45372;-64
2023/08/30 02:04:00;;;;;;;;;5.67;4.00;;;;;19.05;55.34;100511.75;5076676;27;47564;-63
2023/08/30 02:06:36;;;;;;;;;7.00;6.67;;;;;19.03;55.63;100513.59;5074552;27;45506;-66
2023/08/30 02:09:09;;;;;;;;;5.00;5.00;;;;;18.68;55.58;100461.75;5070281;27;45505;-63
2023/08/30 02:11:39;;;;;;;;;5.33;4.00;;;;;18.99;55.42;100522.56;5076445;27;45388;-64
2023/08/30 02:14:07;;;;;;;;;4.00;4.00;;;;;18.92;55.49;100506.94;5079051;27;45504;-63
2023/08/30 02:16:34;;;;;;;;;4.00;4.00;;;;;19.02;55.65;100521.59;5080165;27;45474;-63
2023/08/30 02:18:59;;;;;;;;;4.67;4.00;;;;;19.09;55.81;100524.91;5079255;27;45308;-63
2023/08/30 02:21:29;;;;;;;;;5.00;3.67;;;;;19.10;55.59;100523.97;5079427;27;45408;-66
2023/08/30 02:23:55;;;;;;;;;3.33;3.33;;;;;19.09;55.22;100524.91;5080020;27;45551;-63
2023/08/30 02:26:20;;;;;;;;;5.00;4.67;;;;;19.10;55.54;100524.84;5078949;27;45524;-64
2023/08/30 02:28:46;;;;;;;;;3.33;3.33;;;;;19.10;55.60;100518.66;5079028;28;46968;-63
2023/08/30 02:31:11;;;;;;;;;6.00;5.00;;;;;19.11;55.24;100528.38;5080313;27;45421;-62
2023/08/30 02:33:37;;;;;;;;;4.33;4.33;;;;;19.11;55.01;100523.06;5080203;27;45975;-64
2023/08/30 02:36:07;;;;;;;;;9.00;5.33;;;;;19.12;55.44;100524.78;5095854;27;45422;-63
2023/08/30 02:38:33;;;;;;;;;6.67;4.33;;;;;18.99;55.33;100505.78;5078328;27;45735;-64
2023/08/30 02:40:58;;;;;;;;;6.00;4.67;;;;;19.03;55.43;100516.25;5078918;27;45519;-64
2023/08/30 02:43:24;;;;;;;;;4.33;3.33;;;;;19.03;55.51;100516.25;5078793;27;45779;-64
2023/08/30 02:45:51;;;;;;;;;6.00;5.00;;;;;18.92;55.27;100499.84;5079111;27;45491;-63
2023/08/30 02:48:16;;;;;;;;;6.33;4.00;;;;;18.98;55.50;100512.91;5079923;27;45306;-65
2023/08/30 02:50:42;;;;;;;;;5.67;5.67;;;;;18.98;55.38;100509.34;5079415;27;45471;-64
2023/08/30 02:53:08;;;;;;;;;6.33;4.00;;;;;18.90;55.52;100500.81;5079180;27;46076;-63
2023/08/30 02:55:34;;;;;;;;;4.00;4.00;;;;;18.85;55.58;100498.31;5094962;27;46588;-63
2023/08/30 02:58:00;;;;;;;;;6.00;5.33;;;;;18.91;55.79;100514.03;5078948;27;45350;-64
2023/08/30 03:00:26;;;;;;;;;5.33;4.00;;;;;18.85;55.84;100506.28;5079880;27;45887;-64
2023/08/30 03:02:52;;;;;;;;;4.67;3.33;;;;;18.83;55.81;100514.28;5077583;27;45897;-63
2023/08/30 03:05:18;;;;;;;;;4.00;4.00;;;;;18.79;55.97;100515.34;5078468;27;45357;-63
2023/08/30 03:07:44;;;;;;;;;4.00;4.00;;;;;18.75;55.73;100510.16;5078800;27;45436;-64
2023/08/30 03:10:10;;;;;;;;;4.00;4.00;;;;;18.69;56.01;100499.75;5078441;27;45365;-63
2023/08/30 03:12:36;;;;;;;;;6.00;4.33;;;;;18.72;55.94;100523.50;5094155;27;47074;-63
2023/08/30 03:15:02;;;;;;;;;5.33;5.33;;;;;18.65;56.01;100509.63;5079988;28;45596;-63
2023/08/30 03:17:27;;;;;;;;;5.00;3.00;;;;;18.64;56.44;100514.03;5079703;27;45393;-63
2023/08/30 03:19:53;;;;;;;;;5.00;5.00;;;;;18.65;56.18;100514.94;5094434;27;45239;-65
2023/08/30 03:22:19;;;;;;;;;5.00;4.00;;;;;18.69;56.33;100516.53;5078246;27;46485;-62
2023/08/30 03:24:44;;;;;;;;;5.00;4.00;;;;;18.68;56.13;100508.66;5078275;27;45267;-67
2023/08/30 03:27:10;;;;;;;;;6.00;5.00;;;;;18.74;56.29;100509.28;5078930;27;45296;-64
2023/08/30 03:29:36;;;;;;;;;5.00;4.00;;;;;18.69;56.43;100499.75;5079987;27;45572;-65
2023/08/30 03:32:02;;;;;;;;;5.00;5.00;;;;;18.73;56.41;100512.00;5079589;27;45436;-63
2023/08/30 03:34:27;;;;;;;;;5.67;4.67;;;;;18.70;56.51;100502.38;5079168;27;45466;-65
2023/08/30 03:36:56;;;;;;;;;4.67;4.00;;;;;18.71;56.87;100503.22;5078858;27;45457;-62
2023/08/30 03:39:22;;;;;;;;;8.67;4.67;;;;;18.71;56.83;100503.22;5079970;27;45368;-63
2023/08/30 03:41:48;;;;;;;;;5.33;3.33;;;;;18.60;57.05;100482.38;5078025;27;46259;-63
2023/08/30 03:44:17;;;;;;;;;6.00;4.00;;;;;18.57;57.02;100479.84;5076646;27;45450;-65
2023/08/30 03:46:42;;;;;;;;;4.33;4.33;;;;;18.59;57.21;100481.50;5078086;27;45385;-62
2023/08/30 03:49:08;;;;;;;;;6.00;3.67;;;;;18.70;57.30;100499.72;5077036;27;45458;-64
2023/08/30 03:51:33;;;;;;;;;3.00;3.00;;;;;18.60;57.43;100482.38;5078379;27;46487;-62
2023/08/30 03:54:00;;;;;;;;;5.67;5.33;;;;;18.70;57.44;100496.16;5079440;27;45471;-63
2023/08/30 03:56:25;;;;;;;;;7.00;3.33;;;;;18.58;57.51;100474.47;5095154;27;45395;-62
2023/08/30 03:58:51;;;;;;;;;6.00;4.00;;;;;18.64;57.79;100491.97;5065359;28;45553;-63
2023/08/30 04:01:17;;;;;;;;;4.67;3.33;;;;;18.70;58.14;100493.50;5078434;27;45470;-64
2023/08/30 04:03:42;;;;;;;;;9.00;4.00;;;;;18.68;57.74;100490.94;5077498;27;45413;-64
2023/08/30 04:06:12;;;;;;;;;4.33;3.00;;;;;18.70;57.88;100493.50;5077362;27;45766;-62
2023/08/30 04:08:38;;;;;;;;;3.33;3.33;;;;;18.64;58.09;100476.91;5076527;28;45416;-63
2023/08/30 04:11:03;;;;;;;;;6.00;5.00;;;;;18.71;57.84;100497.91;5077908;27;46440;-64
2023/08/30 04:13:31;;;;;;;;;3.67;3.67;;;;;18.59;58.26;100462.09;5077992;27;45509;-64
2023/08/30 04:15:58;;;;;;;;;6.33;3.33;;;;;18.52;58.74;100477.34;5078910;27;45236;-63
2023/08/30 04:18:24;;;;;;;;;5.33;4.33;;;;;18.57;59.00;100488.66;5079191;27;45349;-63
2023/08/30 04:20:51;;;;;;;;;3.33;3.33;;;;;18.58;59.03;100482.44;5077513;27;45649;-63
2023/08/30 04:23:16;;;;;;;;;4.67;4.33;;;;;18.59;59.01;100485.94;5077801;27;45491;-64
2023/08/30 04:25:44;;;;;;;;;7.33;5.00;;;;;18.61;59.25;100484.97;5093749;27;45682;-65
2023/08/30 04:28:09;;;;;;;;;5.33;5.33;;;;;18.58;59.65;100478.91;5078220;27;45338;-64
2023/08/30 04:30:39;;;;;;;;;2.67;2.33;;;;;18.39;59.53;100455.69;5077682;27;46091;-64
2023/08/30 04:33:05;;;;;;;;;4.33;4.33;;;;;18.41;59.79;100455.63;5076247;27;45291;-64
2023/08/30 04:35:31;;;;;;;;;3.00;3.00;;;;;18.48;60.04;100474.84;5093422;27;45367;-65
2023/08/30 04:37:59;;;;;;;;;3.00;1.33;;;;;18.41;60.37;100464.47;5077079;27;45552;-70
2023/08/30 04:40:24;;;;;;;;;7.00;3.67;;;;;18.35;60.30;100448.75;5077438;27;45579;-66
2023/08/30 04:42:50;;;;;;;;;3.00;3.00;;;;;18.40;60.67;100457.41;5076421;27;45519;-64
2023/08/30 04:45:15;;;;;;;;;5.67;4.00;;;;;18.45;61.06;100457.25;5078054;27;45341;-63
2023/08/30 04:47:43;;;;;;;;;4.33;4.00;;;;;18.40;60.84;100444.16;5072629;27;45439;-66
2023/08/30 04:50:09;;;;;;;;;4.00;4.00;;;;;18.34;61.37;100446.16;5067868;27;45718;-65
2023/08/30 04:52:34;;;;;;;;;4.67;4.00;;;;;18.33;61.67;100449.75;5073047;27;45421;-64
2023/08/30 04:55:00;;;;;;;;;4.00;4.00;;;;;18.20;61.94;100455.47;5070030;27;45417;-70
2023/08/30 04:57:26;;;;;;;;;5.00;4.33;;;;;18.23;61.93;100458.00;5069911;28;45513;-70
2023/08/30 04:59:51;;;;;;;;;6.67;5.00;;;;;18.22;62.27;100444.78;5073091;27;45338;-70
2023/08/30 05:02:17;;;;;;;;;4.67;3.67;;;;;18.21;62.53;100458.97;5069936;27;45382;-68
2023/08/30 05:04:43;;;;;;;;;12.00;7.00;;;;;18.13;63.00;100459.25;5074952;27;45416;-67
2023/08/30 05:07:08;;;;;;;;;6.00;4.00;;;;;18.12;63.05;100457.50;5069106;27;45521;-66
2023/08/30 05:09:40;;;;;;;;;4.00;4.00;;;;;18.01;63.04;100433.16;5072607;27;45580;-63
2023/08/30 05:12:06;;;;;;;;;7.33;7.00;;;;;18.08;63.23;100458.53;5071668;27;45730;-66
2023/08/30 05:14:32;;;;;;;;;5.00;5.00;;;;;18.10;63.05;100442.56;5076764;27;45393;-63
2023/08/30 05:16:58;;;;;;;;;5.00;2.00;;;;;18.05;63.52;100437.41;5077031;27;45440;-63
2023/08/30 05:19:24;;;;;;;;;7.00;5.33;;;;;18.01;63.23;100428.72;5076636;27;45472;-63
2023/08/30 05:21:51;;;;;;;;;4.00;4.00;;;;;18.06;63.34;100447.13;5076742;28;45385;-63
2023/08/30 05:24:17;;;;;;;;;5.00;4.00;;;;;17.93;63.00;100413.97;5075527;27;45715;-63
2023/08/30 05:26:43;;;;;;;;;6.33;6.33;;;;;18.07;63.34;100437.38;5061510;27;46056;-65
2023/08/30 05:29:08;;;;;;;;;13.00;6.33;;;;;18.13;63.05;100453.94;5067821;28;45410;-63
2023/08/30 05:31:34;;;;;;;;;6.00;6.00;;;;;18.15;62.96;100438.84;5064323;27;45291;-64
2023/08/30 05:33:59;;;;;;;;;5.00;4.67;;;;;18.20;63.14;100444.88;5066369;27;45436;-66
2023/08/30 05:36:25;;;;;;;;;4.00;4.00;;;;;18.12;63.06;100441.59;5066967;27;45484;-64
2023/08/30 05:38:51;;;;;;;;;7.00;6.67;;;;;17.99;63.39;100425.25;5073802;27;46161;-63
2023/08/30 05:41:17;;;;;;;;;5.00;5.00;;;;;17.91;63.18;100421.97;5073215;27;45681;-63
2023/08/30 05:43:43;;;;;;;;;8.33;6.33;;;;;18.00;63.35;100442.00;5074443;27;45425;-65
2023/08/30 05:46:14;;;;;;;;;7.00;4.00;;;;;18.13;63.16;100461.03;5075527;27;45325;-65
2023/08/30 05:48:39;;;;;;;;;7.67;5.00;;;;;18.20;63.04;100457.25;5073682;28;46091;-63
2023/08/30 05:51:05;;;;;;;;;4.00;4.00;;;;;18.26;63.04;100461.47;5073992;28;45534;-66
2023/08/30 05:53:31;;;;;;;;;3.67;3.00;;;;;18.13;63.43;100438.03;5064174;27;45330;-64
2023/08/30 05:55:57;;;;;;;;;6.00;6.00;;;;;18.14;63.22;100439.75;5061538;28;45367;-64
2023/08/30 05:58:23;;;;;;;;;6.67;5.00;;;;;18.30;63.44;100455.16;5088248;27;47961;-63
2023/08/30 06:00:48;;;;;;;;;4.00;4.00;;;;;18.27;63.43;100450.81;5060588;28;45632;-62
2023/08/30 06:03:14;;;;;;;;;5.00;4.67;;;;;18.34;63.39;100460.31;5065063;28;45607;-62
2023/08/30 06:05:39;;;;;;;;;5.00;5.00;;;;;18.35;63.42;100466.47;5061167;27;45469;-64
2023/08/30 06:08:05;;;;;;;;;4.00;4.00;;;;;18.36;63.38;100471.69;5062999;28;45414;-66
2023/08/30 06:10:31;;;;;;;;;5.67;5.67;;;;;18.36;63.30;100470.84;5062316;28;45472;-65
2023/08/30 06:12:56;;;;;;;;;7.67;7.00;;;;;18.32;63.60;100470.09;5062143;27;45511;-65
2023/08/30 06:15:22;;;;;;;;;6.67;5.00;;;;;18.25;63.63;100460.63;5076003;28;45264;-63
2023/08/30 06:17:49;;;;;;;;;5.33;4.33;;;;;18.28;63.64;100463.16;5071046;27;46119;-64
2023/08/30 06:20:15;;;;;;;;;4.67;4.67;;;;;18.35;63.93;100469.13;5059816;27;45643;-64
2023/08/30 06:22:42;;;;;;;;;9.33;6.33;;;;;18.43;63.77;100467.06;5061803;27;45366;-63
2023/08/30 06:25:09;;;;;;;;;8.00;6.00;;;;;18.44;64.03;100463.50;5059877;28;45256;-62
2023/08/30 06:27:42;;;;;;;;;9.33;6.33;;;;;18.46;64.09;100472.28;5063030;27;46276;-63
2023/08/30 06:30:08;;;;;;;;;5.00;4.67;;;;;18.39;63.83;100471.59;5059457;28;45405;-63
2023/08/30 06:32:35;;;;;;;;;6.00;5.33;;;;;18.22;64.25;100426.22;5062525;28;45622;-63
2023/08/30 06:35:00;;;;;;;;;5.33;5.00;;;;;18.53;63.80;100464.94;5058427;27;45402;-63
2023/08/30 06:37:26;;;;;;;;;7.00;6.67;;;;;18.52;63.93;100476.47;5061112;27;45456;-63
2023/08/30 06:39:52;;;;;;;;;6.33;4.33;;;;;18.30;64.01;100440.09;5064870;27;45548;-62
2023/08/30 06:42:17;;;;;;;;;5.33;5.00;;;;;18.56;63.91;100471.00;5062921;27;45376;-64
2023/08/30 06:44:43;;;;;;;;;8.67;6.00;;;;;18.39;63.85;100446.88;5066706;27;45365;-65
2023/08/30 06:47:09;;;;;;;;;5.00;5.00;;;;;18.58;63.62;100469.19;5062536;27;45386;-64
2023/08/30 06:49:35;;;;;;;;;6.00;4.33;;;;;18.64;63.44;100476.91;5067024;27;45247;-64
2023/08/30 06:52:03;;;;;;;;;5.33;5.33;;;;;18.70;63.08;100470.53;5061118;27;45359;-64
2023/08/30 06:54:30;;;;;;;;;10.67;5.67;;;;;18.77;63.09;100477.38;5064122;27;45480;-63
2023/08/30 06:57:02;;;;;;;;;7.67;4.67;;;;;18.79;62.97;100469.34;5067973;27;45998;-63
2023/08/30 06:59:28;;;;;;;;;6.00;5.00;;;;;18.73;62.55;100453.63;5066530;27;45477;-64
2023/08/30 07:01:54;;;;;;;;;5.67;4.33;;;;;18.88;62.62;100482.28;5065276;27;45390;-64
2023/08/30 07:04:20;;;;;;;;;5.00;3.67;;;;;18.84;62.86;100478.88;5062501;27;45347;-63
2023/08/30 07:06:46;;;;;;;;;6.00;3.33;;;;;18.87;62.46;100475.25;5065996;27;45525;-63
2023/08/30 07:09:12;;;;;;;;;3.00;3.00;;;;;18.95;62.33;100483.78;5062406;27;45240;-64
2023/08/30 07:11:39;;;;;;;;;3.67;3.67;;;;;18.97;61.88;100495.22;5071887;27;45390;-62
2023/08/30 07:14:05;;;;;;;;;4.00;2.67;;;;;18.88;62.08;100469.00;5078880;27;45493;-64
2023/08/30 07:16:31;;;;;;;;;2.00;2.00;;;;;18.99;61.99;100489.88;5078703;27;46084;-64
2023/08/30 07:18:58;;;;;;;;;3.67;2.00;;;;;18.92;61.24;100464.47;5078620;27;45443;-63
2023/08/30 07:21:24;;;;;;;;;4.33;2.00;;;;;18.81;61.40;100454.25;5078530;27;45303;-63
2023/08/30 07:23:50;;;;;;;;;3.00;3.00;;;;;18.82;61.11;100445.38;5078871;27;45538;-64
2023/08/30 07:26:16;;;;;;;;;3.00;2.67;;;;;19.01;61.47;100472.09;5078793;27;46148;-62
2023/08/30 07:28:42;;;;;;;;;2.67;2.67;;;;;19.07;61.53;100478.03;5077805;27;45362;-63
2023/08/30 07:31:07;;;;;;;;;4.33;3.00;;;;;19.13;61.16;100478.75;5067558;27;45552;-64
2023/08/30 07:33:33;;;;;;;;;2.33;2.00;;;;;18.73;60.83;100413.84;5062200;27;45322;-65
2023/08/30 07:35:59;;;;;;;;;2.00;2.00;;;;;19.11;60.44;100451.38;5067673;27;46110;-62
2023/08/30 07:38:25;;;;;;;;;4.33;3.33;;;;;19.30;60.49;100464.81;5063267;27;45537;-63
2023/08/30 07:40:51;;;;;;;;;3.00;2.00;;;;;19.38;60.25;100476.84;5066233;27;45474;-65
2023/08/30 07:43:17;;;;;;;;;3.33;2.33;;;;;19.54;59.81;100473.63;5060912;27;45425;-64
2023/08/30 07:45:44;;;;;;;;;4.33;4.33;;;;;19.60;59.16;100462.72;5058904;28;46127;-64
2023/08/30 07:48:09;;;;;;;;;4.33;4.00;;;;;19.75;58.83;100464.84;5059396;27;45486;-64
2023/08/30 07:50:35;;;;;;;;;5.67;5.00;;;;;19.91;58.28;100457.97;5059115;27;45942;-65
2023/08/30 07:53:01;;;;;;;;;3.33;2.33;;;;;20.01;58.08;100441.63;5060811;27;45476;-63
2023/08/30 07:55:27;;;;;;;;;3.00;2.67;;;;;20.29;57.87;100473.25;5060066;28;45405;-62
2023/08/30 07:57:52;;;;;;;;;2.67;2.33;;;;;20.42;57.27;100468.25;5058669;27;45536;-66
2023/08/30 08:00:18;;;;;;;;;3.67;2.33;;;;;20.38;56.74;100454.22;5059671;27;45640;-65
2023/08/30 08:02:44;;;;;;;;;3.00;2.33;;;;;20.66;56.34;100469.00;5060266;27;45529;-64
2023/08/30 08:05:10;;;;;;;;;2.33;2.33;;;;;20.52;56.37;100451.84;5059869;27;46686;-65
2023/08/30 08:07:40;;;;;;;;;2.67;2.33;;;;;20.68;55.90;100476.00;5058699;27;45501;-65
2023/08/30 08:10:07;;;;;;;;;4.00;3.00;;;;;20.40;55.92;100427.56;5058847;27;45399;-63
2023/08/30 08:12:33;;;;;;;;;2.00;2.00;;;;;20.71;55.83;100467.00;5076377;27;45207;-69
2023/08/30 08:14:59;;;;;;;;;2.67;2.67;;;;;20.63;55.66;100456.72;5076161;27;46452;-65
2023/08/30 08:17:25;;;;;;;;;2.00;2.00;;;;;20.45;54.88;100410.47;5077602;27;45459;-68
2023/08/30 08:19:51;;;;;;;;;6.67;2.00;;;;;20.61;54.91;100447.94;5078244;27;45375;-65
2023/08/30 08:22:18;;;;;;;;;4.00;3.00;;;;;20.64;54.50;100458.44;5078537;27;45503;-66
2023/08/30 08:24:46;;;;;;;;;3.33;3.00;;;;;20.16;54.66;100390.47;5077357;27;45880;-64
2023/08/30 08:27:12;;;;;;;;;3.00;3.00;;;;;20.70;54.67;100473.28;5077649;27;45523;-66
2023/08/30 08:29:38;;;;;;;;;3.67;2.00;;;;;20.71;54.37;100475.00;5077871;27;45258;-63
2023/08/30 08:32:04;;;;;;;;;2.00;2.00;;;;;20.65;54.32;100449.53;5078332;27;45275;-64
2023/08/30 08:34:30;;;;;;;;;2.00;2.00;;;;;20.87;54.28;100478.72;5077744;27;45365;-63
2023/08/30 08:36:56;;;;;;;;;3.33;3.33;;;;;20.77;54.00;100449.94;5077929;27;45260;-64
2023/08/30 08:39:22;;;;;;;;;6.00;3.00;;;;;20.92;53.14;100473.19;5078032;27;45409;-63
2023/08/30 08:41:51;;;;;;;;;7.00;2.67;;;;;20.72;52.25;100458.13;5077853;27;45347;-64
2023/08/30 08:44:19;;;;;;;;;4.00;3.33;;;;;20.71;52.12;100470.53;5077333;27;46655;-63
2023/08/30 08:46:46;;;;;;;;;2.33;2.00;;;;;20.75;51.79;100477.47;5077558;27;46240;-65
2023/08/30 08:49:18;;;;;;;;;3.00;3.00;;;;;20.64;52.00;100463.75;5077564;27;45500;-63
2023/08/30 08:51:45;;;;;;;;;2.67;2.00;;;;;20.77;51.44;100484.53;5078905;27;45279;-63
2023/08/30 08:54:11;;;;;;;;;4.00;3.00;;;;;20.73;51.78;100474.00;5077159;27;46495;-63
2023/08/30 08:56:38;;;;;;;;;2.00;2.00;;;;;20.67;51.82;100465.44;5076949;27;45496;-64
2023/08/30 08:59:08;;;;;;;;;3.00;3.00;;;;;20.72;51.91;100482.91;5077012;27;45447;-63
2023/08/30 09:01:35;;;;;;;;;3.00;2.00;;;;;20.71;52.16;100478.50;5076251;27;45500;-65
2023/08/30 09:04:07;;;;;;;;;5.33;2.00;;;;;20.79;52.17;100480.88;5092457;27;45624;-63
2023/08/30 09:06:33;;;;;;;;;4.00;3.00;;;;;20.95;51.84;100494.31;5078104;27;45294;-64
2023/08/30 09:09:00;;;;;;;;;3.33;3.33;;;;;21.10;51.43;100485.66;5076928;27;45627;-63
2023/08/30 09:11:29;;;;;;;;;3.00;3.00;;;;;21.24;51.06;100489.50;5077034;27;45436;-63
2023/08/30 09:13:55;;;;;;;;;4.00;2.00;;;;;21.36;50.84;100489.78;5077014;27;45422;-64
2023/08/30 09:16:24;;;;;;;;;3.67;2.00;;;;;21.29;50.61;100451.06;5092618;27;45361;-63
2023/08/30 09:19:00;;;;;;;;;3.00;3.00;;;;;21.47;50.17;100460.00;5077270;27;45936;-64
2023/08/30 09:21:26;;;;;;;;;3.00;3.00;;;;;21.71;50.08;100491.72;5078167;27;45574;-64
2023/08/30 09:24:02;;;;;;;;;2.33;2.33;;;;;21.66;50.04;100480.44;5077927;27;45964;-64
2023/08/30 09:26:33;;;;;;;;;1.67;1.67;;;;;21.68;49.54;100473.22;5078335;27;45451;-64
2023/08/30 09:29:06;;;;;;;;;3.00;3.00;;;;;21.74;48.39;100473.81;5077951;27;45256;-64
2023/08/30 09:31:40;;;;;;;;;4.00;2.67;;;;;21.86;48.36;100492.81;5077265;27;45317;-63
2023/08/30 09:34:06;;;;;;;;;5.33;3.33;;;;;21.90;47.92;100478.38;5076942;27;45383;-63
2023/08/30 09:36:35;;;;;;;;;2.00;2.00;;;;;21.97;47.18;100488.69;5076732;27;45352;-63
2023/08/30 09:39:12;;;;;;;;;3.00;3.00;;;;;22.09;47.39;100476.53;5095008;27;45919;-64
2023/08/30 09:41:46;;;;;;;;;3.00;2.33;;;;;22.28;46.96;100481.84;5076820;27;45421;-62
2023/08/30 09:44:24;;;;;;;;;2.00;2.00;;;;;22.35;46.93;100464.59;5078195;27;46183;-64
2023/08/30 09:46:52;;;;;;;;;3.00;2.67;;;;;22.60;45.77;100463.31;5078103;27;45361;-65
2023/08/30 09:49:23;;;;;;;;;4.00;2.00;;;;;22.80;44.96;100459.56;5079597;28;45429;-68
2023/08/30 09:51:51;;;;;;;;;4.00;2.67;;;;;23.03;44.19;100472.59;5078486;27;45317;-64
2023/08/30 09:54:24;;;;;;;;;3.00;3.00;;;;;23.23;44.12;100473.31;5076566;27;45520;-66
2023/08/30 09:56:55;;;;;;;;;5.33;4.00;;;;;23.24;41.98;100469.69;5077608;27;45321;-63
2023/08/30 09:59:23;;;;;;;;;2.33;2.00;;;;;23.37;44.42;100464.53;5076171;28;45561;-63
2023/08/30 10:01:50;;;;;;;;;3.33;2.67;;;;;23.45;44.46;100465.84;5076042;27;45481;-66
2023/08/30 10:04:18;;;;;;;;;5.67;3.00;;;;;23.48;44.25;100448.75;5075947;27;46145;-65
2023/08/30 10:06:46;;;;;;;;;3.00;3.00;;;;;23.64;42.72;100460.31;5076200;27;45380;-65
2023/08/30 10:09:12;;;;;;;;;3.33;2.33;;;;;23.58;42.79;100454.44;5076935;27;45438;-65
2023/08/30 10:11:39;;;;;;;;;2.67;2.33;;;;;23.50;40.75;100446.88;5076707;27;45522;-65
2023/08/30 10:14:08;;;;;;;;;2.67;2.67;;;;;23.49;41.03;100438.00;5080231;27;46150;-64
2023/08/30 10:16:43;;;;;;;;;3.50;2.25;;;;;23.71;41.90;100463.50;5079609;27;45547;-66
2023/08/30 10:19:24;;;;;;;;;3.00;3.00;;;;;23.60;41.25;100431.16;5095682;27;45528;-66
2023/08/30 10:22:04;;;;;;;;;3.00;2.00;;;;;23.91;41.46;100483.78;5093614;27;45517;-64
2023/08/30 10:24:35;;;;;;;;;2.75;2.25;;;;;23.77;40.48;100436.44;5075144;27;46614;-63
2023/08/30 10:27:05;;;;;;;;;2.50;2.50;;;;;23.99;41.24;100448.56;5079716;27;45595;-63
2023/08/30 10:29:34;;;;;;;;;3.33;3.00;;;;;24.05;40.92;100445.53;5079597;27;45408;-65
2023/08/30 10:32:06;;;;;;;;;3.25;3.00;;;;;24.40;40.80;100467.53;5080855;27;45489;-64
2023/08/30 10:34:34;;;;;;;;;3.25;3.00;;;;;24.54;40.03;100467.59;5079607;27;45382;-64
2023/08/30 10:37:01;;;;;;;;;2.25;2.00;;;;;24.74;40.03;100460.16;5079692;27;45738;-63
2023/08/30 10:39:40;;;;;;;;;4.75;3.00;;;;;24.88;39.86;100462.84;5079685;27;45378;-64
2023/08/30 10:42:13;;;;;;;;;3.00;2.25;;;;;25.05;39.64;100461.78;5078090;27;45365;-63
2023/08/30 10:44:59;;;;;;;;;6.75;4.00;;;;;24.98;38.78;100415.75;5078946;27;45565;-64
2023/08/30 10:47:28;;;;;;;;;2.75;2.25;;;;;25.41;37.72;100463.09;5079870;27;45382;-64
2023/08/30 10:49:59;;;;;;;;;5.50;3.00;;;;;25.52;36.49;100460.59;5080740;27;45480;-65
2023/08/30 10:52:27;;;;;;;;;2.25;2.25;;;;;25.29;37.00;100394.19;5081080;27;45466;-66
2023/08/30 10:55:04;;;;;;;;;2.75;2.75;;;;;25.76;37.02;100468.00;5080024;27;46684;-64
2023/08/30 10:57:29;;;;;;;;;2.25;2.25;;;;;25.89;35.28;100460.03;5079524;27;45558;-63
2023/08/30 11:00:28;;;;;;;;;4.75;2.75;;;;;25.76;36.50;100438.50;5079710;27;45279;-65
2023/08/30 11:02:54;;;;;;;;;3.00;1.75;;;;;25.90;36.30;100446.53;5080382;27;45452;-66
2023/08/30 11:05:25;;;;;;;;;5.25;3.50;;;;;25.74;36.11;100435.06;5079795;27;46259;-66
2023/08/30 11:07:52;;;;;;;;;4.00;4.00;;;;;25.94;35.78;100471.34;5078904;27;45765;-64
2023/08/30 11:10:19;;;;;;;;;6.25;4.75;;;;;25.71;35.30;100413.81;5078480;27;45478;-66
2023/08/30 11:12:46;;;;;;;;;2.00;2.00;;;;;26.13;35.18;100469.13;5080044;27;45489;-65
2023/08/30 11:15:14;;;;;;;;;3.00;3.00;;;;;26.00;35.00;100428.84;5079032;27;46357;-65
2023/08/30 11:17:40;;;;;;;;;4.25;3.00;;;;;26.13;34.67;100447.66;5077219;27;45476;-70
2023/08/30 11:20:08;;;;;;;;;3.25;3.00;;;;;26.18;35.34;100458.09;5078971;27;45535;-67
2023/08/30 11:22:39;;;;;;;;;7.75;3.75;;;;;25.91;35.60;100429.47;5064588;27;45424;-68
2023/08/30 11:25:06;;;;;;;;;5.25;4.00;;;;;26.07;36.08;100457.94;5077696;27;45460;-63
2023/08/30 11:27:32;;;;;;;;;6.00;5.00;;;;;26.08;35.39;100463.22;5078685;27;45489;-65